sensor_id;sensor_type;location;lat;lon;timestamp;P1;durP1;ratioP1;P2;durP2;ratioP2
36191;SDS011;22233;42.708;23.360;2022-08-21T00:01:25;11.43;;;10.00;;
36191;SDS011;22233;42.708;23.360;2022-08-21T00:03:53;13.20;;;9.02;;
36191;SDS011;22233;42.708;23.360;2022-08-21T00:06:20;13.40;;;10.00;;
36191;SDS011;22233;42.708;23.360;2022-08-21T00:08:45;15.20;;;9.20;;
36191;SDS011;22233;42.708;23.360;2022-08-21T00:11:11;12.88;;;9.15;;
36191;SDS011;22233;42.708;23.360;2022-08-21T00:13:36;12.60;;;9.68;;
36191;SDS011;22233;42.708;23.360;2022-08-21T00:16:03;12.50;;;10.48;;
36191;SDS011;22233;42.708;23.360;2022-08-21T00:18:29;14.48;;;11.57;;
36191;SDS011;22233;42.708;23.360;2022-08-21T00:20:54;12.02;;;9.95;;
36191;SDS011;22233;42.708;23.360;2022-08-21T00:23:20;11.27;;;9.05;;
36191;SDS011;22233;42.708;23.360;2022-08-21T00:25:46;11.93;;;10.48;;
36191;SDS011;22233;42.708;23.360;2022-08-21T00:28:12;15.50;;;12.38;;
36191;SDS011;22233;42.708;23.360;2022-08-21T00:30:38;16.00;;;12.95;;
36191;SDS011;22233;42.708;23.360;2022-08-21T00:33:05;19.87;;;16.07;;
36191;SDS011;22233;42.708;23.360;2022-08-21T00:35:33;23.75;;;14.77;;
36191;SDS011;22233;42.708;23.360;2022-08-21T00:38:01;18.83;;;16.40;;
36191;SDS011;22233;42.708;23.360;2022-08-21T00:40:33;24.67;;;16.63;;
36191;SDS011;22233;42.708;23.360;2022-08-21T00:43:14;21.88;;;16.88;;
36191;SDS011;22233;42.708;23.360;2022-08-21T00:45:42;24.13;;;17.92;;
36191;SDS011;22233;42.708;23.360;2022-08-21T00:48:08;21.77;;;17.30;;
36191;SDS011;22233;42.708;23.360;2022-08-21T00:50:34;22.85;;;16.55;;
36191;SDS011;22233;42.708;23.360;2022-08-21T00:53:03;23.23;;;17.70;;
36191;SDS011;22233;42.708;23.360;2022-08-21T00:55:31;27.50;;;17.98;;
36191;SDS011;22233;42.708;23.360;2022-08-21T00:57:58;28.73;;;18.63;;
36191;SDS011;22233;42.708;23.360;2022-08-21T01:02:59;28.50;;;19.48;;
36191;SDS011;22233;42.708;23.360;2022-08-21T01:05:26;26.10;;;19.60;;
36191;SDS011;22233;42.708;23.360;2022-08-21T01:07:52;29.00;;;20.30;;
36191;SDS011;22233;42.708;23.360;2022-08-21T01:10:18;27.65;;;20.27;;
36191;SDS011;22233;42.708;23.360;2022-08-21T01:12:44;28.85;;;20.25;;
36191;SDS011;22233;42.708;23.360;2022-08-21T01:15:10;30.98;;;21.38;;
36191;SDS011;22233;42.708;23.360;2022-08-21T01:17:36;28.80;;;20.65;;
36191;SDS011;22233;42.708;23.360;2022-08-21T01:20:04;29.10;;;20.90;;
36191;SDS011;22233;42.708;23.360;2022-08-21T01:22:32;25.38;;;18.15;;
36191;SDS011;22233;42.708;23.360;2022-08-21T01:24:57;30.77;;;22.55;;
36191;SDS011;22233;42.708;23.360;2022-08-21T01:27:23;28.98;;;20.65;;
36191;SDS011;22233;42.708;23.360;2022-08-21T01:29:54;31.80;;;21.77;;
36191;SDS011;22233;42.708;23.360;2022-08-21T01:32:24;30.85;;;21.42;;
36191;SDS011;22233;42.708;23.360;2022-08-21T01:34:50;30.38;;;21.65;;
36191;SDS011;22233;42.708;23.360;2022-08-21T01:37:17;33.75;;;21.25;;
36191;SDS011;22233;42.708;23.360;2022-08-21T01:39:45;27.45;;;20.65;;
36191;SDS011;22233;42.708;23.360;2022-08-21T01:42:11;30.88;;;20.60;;
36191;SDS011;22233;42.708;23.360;2022-08-21T01:44:37;31.77;;;20.90;;
36191;SDS011;22233;42.708;23.360;2022-08-21T01:47:04;26.60;;;18.98;;
36191;SDS011;22233;42.708;23.360;2022-08-21T01:49:32;24.60;;;18.60;;
36191;SDS011;22233;42.708;23.360;2022-08-21T01:51:59;25.03;;;18.60;;
36191;SDS011;22233;42.708;23.360;2022-08-21T01:54:24;23.13;;;18.05;;
36191;SDS011;22233;42.708;23.360;2022-08-21T01:56:50;27.83;;;18.88;;
36191;SDS011;22233;42.708;23.360;2022-08-21T01:59:18;26.80;;;19.67;;
36191;SDS011;22233;42.708;23.360;2022-08-21T02:01:43;26.33;;;18.85;;
36191;SDS011;22233;42.708;23.360;2022-08-21T02:04:09;26.77;;;18.25;;
36191;SDS011;22233;42.708;23.360;2022-08-21T02:06:35;21.88;;;16.98;;
36191;SDS011;22233;42.708;23.360;2022-08-21T02:09:02;26.50;;;18.48;;
36191;SDS011;22233;42.708;23.360;2022-08-21T02:11:30;23.33;;;17.48;;
36191;SDS011;22233;42.708;23.360;2022-08-21T02:13:56;21.63;;;16.75;;
36191;SDS011;22233;42.708;23.360;2022-08-21T02:16:22;22.27;;;16.70;;
36191;SDS011;22233;42.708;23.360;2022-08-21T02:18:47;21.38;;;15.13;;
36191;SDS011;22233;42.708;23.360;2022-08-21T02:21:12;20.00;;;15.02;;
36191;SDS011;22233;42.708;23.360;2022-08-21T02:23:38;19.42;;;15.50;;
36191;SDS011;22233;42.708;23.360;2022-08-21T02:26:04;19.58;;;14.38;;
36191;SDS011;22233;42.708;23.360;2022-08-21T02:28:32;21.50;;;15.00;;
36191;SDS011;22233;42.708;23.360;2022-08-21T02:30:57;21.65;;;16.30;;
36191;SDS011;22233;42.708;23.360;2022-08-21T02:33:24;20.25;;;16.67;;
36191;SDS011;22233;42.708;23.360;2022-08-21T02:35:51;25.27;;;15.43;;
36191;SDS011;22233;42.708;23.360;2022-08-21T02:38:19;20.85;;;16.50;;
36191;SDS011;22233;42.708;23.360;2022-08-21T02:40:47;21.45;;;15.18;;
36191;SDS011;22233;42.708;23.360;2022-08-21T02:43:14;22.85;;;15.93;;
36191;SDS011;22233;42.708;23.360;2022-08-21T02:45:40;20.63;;;15.23;;
36191;SDS011;22233;42.708;23.360;2022-08-21T02:48:10;22.33;;;16.75;;
36191;SDS011;22233;42.708;23.360;2022-08-21T02:50:39;19.15;;;15.80;;
36191;SDS011;22233;42.708;23.360;2022-08-21T02:53:07;22.35;;;17.30;;
36191;SDS011;22233;42.708;23.360;2022-08-21T02:55:36;24.95;;;17.30;;
36191;SDS011;22233;42.708;23.360;2022-08-21T02:58:03;23.13;;;15.80;;
36191;SDS011;22233;42.708;23.360;2022-08-21T03:00:32;21.77;;;16.30;;
36191;SDS011;22233;42.708;23.360;2022-08-21T03:02:59;22.55;;;17.83;;
36191;SDS011;22233;42.708;23.360;2022-08-21T03:05:26;21.92;;;17.15;;
36191;SDS011;22233;42.708;23.360;2022-08-21T03:07:52;25.80;;;19.02;;
36191;SDS011;22233;42.708;23.360;2022-08-21T03:10:18;24.35;;;16.65;;
36191;SDS011;22233;42.708;23.360;2022-08-21T03:12:46;24.02;;;16.77;;
36191;SDS011;22233;42.708;23.360;2022-08-21T03:15:13;23.10;;;17.35;;
36191;SDS011;22233;42.708;23.360;2022-08-21T03:17:40;22.70;;;17.00;;
36191;SDS011;22233;42.708;23.360;2022-08-21T03:20:06;26.40;;;17.00;;
36191;SDS011;22233;42.708;23.360;2022-08-21T03:22:33;22.17;;;16.10;;
36191;SDS011;22233;42.708;23.360;2022-08-21T03:24:59;23.38;;;16.83;;
36191;SDS011;22233;42.708;23.360;2022-08-21T03:27:26;19.50;;;14.33;;
36191;SDS011;22233;42.708;23.360;2022-08-21T03:29:53;18.50;;;15.45;;
36191;SDS011;22233;42.708;23.360;2022-08-21T03:32:19;22.40;;;14.55;;
36191;SDS011;22233;42.708;23.360;2022-08-21T03:34:44;22.65;;;14.88;;
36191;SDS011;22233;42.708;23.360;2022-08-21T03:37:10;21.10;;;15.07;;
36191;SDS011;22233;42.708;23.360;2022-08-21T03:39:36;21.38;;;15.52;;
36191;SDS011;22233;42.708;23.360;2022-08-21T03:42:01;22.33;;;16.05;;
36191;SDS011;22233;42.708;23.360;2022-08-21T03:44:27;18.13;;;14.65;;
36191;SDS011;22233;42.708;23.360;2022-08-21T03:46:56;19.17;;;15.98;;
36191;SDS011;22233;42.708;23.360;2022-08-21T03:49:22;20.70;;;16.65;;
36191;SDS011;22233;42.708;23.360;2022-08-21T03:51:47;23.65;;;16.48;;
36191;SDS011;22233;42.708;23.360;2022-08-21T03:54:13;26.05;;;17.38;;
36191;SDS011;22233;42.708;23.360;2022-08-21T03:56:38;24.70;;;16.58;;
36191;SDS011;22233;42.708;23.360;2022-08-21T03:59:04;21.23;;;17.15;;
36191;SDS011;22233;42.708;23.360;2022-08-21T04:01:30;23.77;;;15.65;;
36191;SDS011;22233;42.708;23.360;2022-08-21T04:03:55;25.23;;;17.13;;
36191;SDS011;22233;42.708;23.360;2022-08-21T04:06:21;21.52;;;16.88;;
36191;SDS011;22233;42.708;23.360;2022-08-21T04:08:46;23.70;;;16.27;;
36191;SDS011;22233;42.708;23.360;2022-08-21T04:11:12;20.25;;;15.95;;
36191;SDS011;22233;42.708;23.360;2022-08-21T04:13:37;18.50;;;13.48;;
36191;SDS011;22233;42.708;23.360;2022-08-21T04:16:03;18.42;;;14.48;;
36191;SDS011;22233;42.708;23.360;2022-08-21T04:18:29;17.70;;;13.00;;
36191;SDS011;22233;42.708;23.360;2022-08-21T04:20:55;17.88;;;14.52;;
36191;SDS011;22233;42.708;23.360;2022-08-21T04:23:23;23.45;;;13.45;;
36191;SDS011;22233;42.708;23.360;2022-08-21T04:25:49;18.17;;;13.43;;
36191;SDS011;22233;42.708;23.360;2022-08-21T04:28:14;19.50;;;12.65;;
36191;SDS011;22233;42.708;23.360;2022-08-21T04:30:40;16.50;;;12.40;;
36191;SDS011;22233;42.708;23.360;2022-08-21T04:33:05;16.70;;;12.45;;
36191;SDS011;22233;42.708;23.360;2022-08-21T04:35:31;15.40;;;12.38;;
36191;SDS011;22233;42.708;23.360;2022-08-21T04:37:56;14.80;;;12.35;;
36191;SDS011;22233;42.708;23.360;2022-08-21T04:40:23;20.48;;;12.70;;
36191;SDS011;22233;42.708;23.360;2022-08-21T04:42:54;19.00;;;12.98;;
36191;SDS011;22233;42.708;23.360;2022-08-21T04:45:27;16.05;;;12.60;;
36191;SDS011;22233;42.708;23.360;2022-08-21T04:48:01;16.25;;;12.40;;
36191;SDS011;22233;42.708;23.360;2022-08-21T04:50:40;16.63;;;11.90;;
36191;SDS011;22233;42.708;23.360;2022-08-21T04:53:11;19.65;;;12.43;;
36191;SDS011;22233;42.708;23.360;2022-08-21T04:55:43;15.25;;;12.02;;
36191;SDS011;22233;42.708;23.360;2022-08-21T04:58:11;15.98;;;12.15;;
36191;SDS011;22233;42.708;23.360;2022-08-21T05:00:39;17.10;;;11.40;;
36191;SDS011;22233;42.708;23.360;2022-08-21T05:03:06;16.48;;;12.35;;
36191;SDS011;22233;42.708;23.360;2022-08-21T05:05:34;16.63;;;13.30;;
36191;SDS011;22233;42.708;23.360;2022-08-21T05:08:01;16.95;;;13.18;;
36191;SDS011;22233;42.708;23.360;2022-08-21T05:12:53;16.73;;;13.45;;
36191;SDS011;22233;42.708;23.360;2022-08-21T05:15:20;17.38;;;13.05;;
36191;SDS011;22233;42.708;23.360;2022-08-21T05:17:45;16.45;;;14.75;;
36191;SDS011;22233;42.708;23.360;2022-08-21T05:20:12;15.85;;;13.50;;
36191;SDS011;22233;42.708;23.360;2022-08-21T05:22:38;16.38;;;13.38;;
36191;SDS011;22233;42.708;23.360;2022-08-21T05:25:05;15.77;;;13.55;;
36191;SDS011;22233;42.708;23.360;2022-08-21T05:27:32;23.35;;;13.70;;
36191;SDS011;22233;42.708;23.360;2022-08-21T05:29:58;18.13;;;13.02;;
36191;SDS011;22233;42.708;23.360;2022-08-21T05:32:23;15.30;;;12.73;;
36191;SDS011;22233;42.708;23.360;2022-08-21T05:34:49;18.02;;;13.07;;
36191;SDS011;22233;42.708;23.360;2022-08-21T05:37:15;17.33;;;12.55;;
36191;SDS011;22233;42.708;23.360;2022-08-21T05:39:40;16.52;;;12.73;;
36191;SDS011;22233;42.708;23.360;2022-08-21T05:42:06;17.17;;;12.75;;
36191;SDS011;22233;42.708;23.360;2022-08-21T05:44:32;16.08;;;13.23;;
36191;SDS011;22233;42.708;23.360;2022-08-21T05:47:05;19.02;;;14.63;;
36191;SDS011;22233;42.708;23.360;2022-08-21T05:49:32;15.60;;;13.13;;
36191;SDS011;22233;42.708;23.360;2022-08-21T05:51:57;18.20;;;13.27;;
36191;SDS011;22233;42.708;23.360;2022-08-21T05:54:22;15.80;;;13.57;;
36191;SDS011;22233;42.708;23.360;2022-08-21T05:56:48;17.35;;;13.05;;
36191;SDS011;22233;42.708;23.360;2022-08-21T05:59:14;13.07;;;11.63;;
36191;SDS011;22233;42.708;23.360;2022-08-21T06:01:39;16.02;;;12.77;;
36191;SDS011;22233;42.708;23.360;2022-08-21T06:04:05;15.10;;;12.30;;
36191;SDS011;22233;42.708;23.360;2022-08-21T06:06:32;18.40;;;13.33;;
36191;SDS011;22233;42.708;23.360;2022-08-21T06:08:57;16.15;;;12.90;;
36191;SDS011;22233;42.708;23.360;2022-08-21T06:11:23;16.92;;;12.45;;
36191;SDS011;22233;42.708;23.360;2022-08-21T06:13:48;19.38;;;12.75;;
36191;SDS011;22233;42.708;23.360;2022-08-21T06:16:14;18.50;;;12.43;;
36191;SDS011;22233;42.708;23.360;2022-08-21T06:18:41;14.52;;;11.00;;
36191;SDS011;22233;42.708;23.360;2022-08-21T06:21:07;15.77;;;12.48;;
36191;SDS011;22233;42.708;23.360;2022-08-21T06:23:33;14.60;;;12.50;;
36191;SDS011;22233;42.708;23.360;2022-08-21T06:26:00;15.40;;;12.27;;
36191;SDS011;22233;42.708;23.360;2022-08-21T06:28:26;13.45;;;11.25;;
36191;SDS011;22233;42.708;23.360;2022-08-21T06:30:51;15.25;;;11.82;;
36191;SDS011;22233;42.708;23.360;2022-08-21T06:33:17;14.57;;;11.88;;
36191;SDS011;22233;42.708;23.360;2022-08-21T06:35:42;16.60;;;11.77;;
36191;SDS011;22233;42.708;23.360;2022-08-21T06:38:08;16.33;;;11.73;;
36191;SDS011;22233;42.708;23.360;2022-08-21T06:40:33;17.23;;;13.90;;
36191;SDS011;22233;42.708;23.360;2022-08-21T06:43:05;17.98;;;12.15;;
36191;SDS011;22233;42.708;23.360;2022-08-21T06:45:33;18.90;;;11.43;;
36191;SDS011;22233;42.708;23.360;2022-08-21T06:47:58;15.70;;;12.57;;
36191;SDS011;22233;42.708;23.360;2022-08-21T06:50:24;16.73;;;10.90;;
36191;SDS011;22233;42.708;23.360;2022-08-21T06:52:49;18.52;;;11.95;;
36191;SDS011;22233;42.708;23.360;2022-08-21T06:55:24;17.45;;;11.35;;
36191;SDS011;22233;42.708;23.360;2022-08-21T06:57:49;14.32;;;9.95;;
36191;SDS011;22233;42.708;23.360;2022-08-21T07:00:14;17.88;;;10.43;;
36191;SDS011;22233;42.708;23.360;2022-08-21T07:02:40;12.23;;;9.90;;
36191;SDS011;22233;42.708;23.360;2022-08-21T07:05:05;13.68;;;9.57;;
36191;SDS011;22233;42.708;23.360;2022-08-21T07:07:31;14.75;;;10.57;;
36191;SDS011;22233;42.708;23.360;2022-08-21T07:09:57;14.57;;;9.60;;
36191;SDS011;22233;42.708;23.360;2022-08-21T07:12:22;11.32;;;9.63;;
36191;SDS011;22233;42.708;23.360;2022-08-21T07:14:48;26.25;;;18.50;;
36191;SDS011;22233;42.708;23.360;2022-08-21T07:17:13;23.17;;;18.50;;
36191;SDS011;22233;42.708;23.360;2022-08-21T07:19:39;12.65;;;10.05;;
36191;SDS011;22233;42.708;23.360;2022-08-21T07:22:04;15.40;;;10.00;;
36191;SDS011;22233;42.708;23.360;2022-08-21T07:24:29;12.82;;;9.80;;
36191;SDS011;22233;42.708;23.360;2022-08-21T07:26:55;15.95;;;11.40;;
36191;SDS011;22233;42.708;23.360;2022-08-21T07:29:20;14.20;;;11.23;;
36191;SDS011;22233;42.708;23.360;2022-08-21T07:31:46;19.95;;;12.25;;
36191;SDS011;22233;42.708;23.360;2022-08-21T07:34:11;23.38;;;10.65;;
36191;SDS011;22233;42.708;23.360;2022-08-21T07:36:37;11.35;;;8.98;;
36191;SDS011;22233;42.708;23.360;2022-08-21T07:39:03;12.10;;;9.48;;
36191;SDS011;22233;42.708;23.360;2022-08-21T07:41:28;13.55;;;10.02;;
36191;SDS011;22233;42.708;23.360;2022-08-21T07:43:57;14.32;;;9.93;;
36191;SDS011;22233;42.708;23.360;2022-08-21T07:46:23;13.05;;;10.15;;
36191;SDS011;22233;42.708;23.360;2022-08-21T07:48:50;13.10;;;9.80;;
36191;SDS011;22233;42.708;23.360;2022-08-21T07:51:16;15.70;;;10.73;;
36191;SDS011;22233;42.708;23.360;2022-08-21T07:53:46;12.80;;;8.85;;
36191;SDS011;22233;42.708;23.360;2022-08-21T07:56:13;11.77;;;9.30;;
36191;SDS011;22233;42.708;23.360;2022-08-21T07:58:38;12.60;;;9.25;;
36191;SDS011;22233;42.708;23.360;2022-08-21T08:01:05;11.23;;;8.32;;
36191;SDS011;22233;42.708;23.360;2022-08-21T08:03:31;12.85;;;9.38;;
36191;SDS011;22233;42.708;23.360;2022-08-21T08:05:56;13.32;;;8.45;;
36191;SDS011;22233;42.708;23.360;2022-08-21T08:08:22;9.57;;;7.53;;
36191;SDS011;22233;42.708;23.360;2022-08-21T08:10:48;12.15;;;8.00;;
36191;SDS011;22233;42.708;23.360;2022-08-21T08:13:14;13.10;;;8.02;;
36191;SDS011;22233;42.708;23.360;2022-08-21T08:15:40;15.80;;;8.80;;
36191;SDS011;22233;42.708;23.360;2022-08-21T08:18:06;12.05;;;7.80;;
36191;SDS011;22233;42.708;23.360;2022-08-21T08:20:31;11.75;;;8.40;;
36191;SDS011;22233;42.708;23.360;2022-08-21T08:22:57;23.83;;;12.68;;
36191;SDS011;22233;42.708;23.360;2022-08-21T08:25:23;21.35;;;10.95;;
36191;SDS011;22233;42.708;23.360;2022-08-21T08:30:17;13.10;;;9.52;;
36191;SDS011;22233;42.708;23.360;2022-08-21T08:35:09;9.30;;;8.35;;
36191;SDS011;22233;42.708;23.360;2022-08-21T08:37:36;15.95;;;11.63;;
36191;SDS011;22233;42.708;23.360;2022-08-21T08:40:14;16.80;;;11.50;;
36191;SDS011;22233;42.708;23.360;2022-08-21T08:42:45;16.48;;;13.75;;
36191;SDS011;22233;42.708;23.360;2022-08-21T08:45:13;16.10;;;13.35;;
36191;SDS011;22233;42.708;23.360;2022-08-21T08:47:52;15.95;;;13.15;;
36191;SDS011;22233;42.708;23.360;2022-08-21T08:50:27;16.10;;;12.65;;
36191;SDS011;22233;42.708;23.360;2022-08-21T08:53:05;12.40;;;9.98;;
36191;SDS011;22233;42.708;23.360;2022-08-21T08:55:35;13.95;;;9.85;;
36191;SDS011;22233;42.708;23.360;2022-08-21T08:58:05;11.25;;;10.02;;
36191;SDS011;22233;42.708;23.360;2022-08-21T09:00:32;13.43;;;11.77;;
36191;SDS011;22233;42.708;23.360;2022-08-21T09:02:59;18.23;;;11.33;;
36191;SDS011;22233;42.708;23.360;2022-08-21T09:05:27;14.27;;;10.43;;
36191;SDS011;22233;42.708;23.360;2022-08-21T09:21:45;13.00;;;8.63;;
36191;SDS011;22233;42.708;23.360;2022-08-21T09:24:40;8.88;;;7.97;;
36191;SDS011;22233;42.708;23.360;2022-08-21T09:27:10;10.63;;;7.45;;
36191;SDS011;22233;42.708;23.360;2022-08-21T09:29:40;14.85;;;9.10;;
36191;SDS011;22233;42.708;23.360;2022-08-21T09:32:49;8.43;;;6.63;;
36191;SDS011;22233;42.708;23.360;2022-08-21T09:37:29;10.45;;;6.72;;
36191;SDS011;22233;42.708;23.360;2022-08-21T09:39:57;11.32;;;7.57;;
36191;SDS011;22233;42.708;23.360;2022-08-21T09:42:24;11.23;;;6.60;;
36191;SDS011;22233;42.708;23.360;2022-08-21T09:45:08;9.43;;;6.35;;
36191;SDS011;22233;42.708;23.360;2022-08-21T09:47:36;13.10;;;6.72;;
36191;SDS011;22233;42.708;23.360;2022-08-21T09:52:42;8.40;;;6.38;;
36191;SDS011;22233;42.708;23.360;2022-08-21T09:55:18;11.68;;;7.03;;
36191;SDS011;22233;42.708;23.360;2022-08-21T09:58:06;13.35;;;7.50;;
36191;SDS011;22233;42.708;23.360;2022-08-21T10:00:32;10.75;;;7.35;;
36191;SDS011;22233;42.708;23.360;2022-08-21T10:05:37;8.52;;;6.53;;
36191;SDS011;22233;42.708;23.360;2022-08-21T10:08:03;10.98;;;6.22;;
36191;SDS011;22233;42.708;23.360;2022-08-21T10:10:31;12.23;;;6.78;;
36191;SDS011;22233;42.708;23.360;2022-08-21T10:13:44;17.73;;;6.78;;
36191;SDS011;22233;42.708;23.360;2022-08-21T10:32:29;11.73;;;6.65;;
36191;SDS011;22233;42.708;23.360;2022-08-21T10:40:29;8.40;;;6.40;;
36191;SDS011;22233;42.708;23.360;2022-08-21T10:45:31;13.00;;;7.10;;
36191;SDS011;22233;42.708;23.360;2022-08-21T10:48:06;9.50;;;6.03;;
36191;SDS011;22233;42.708;23.360;2022-08-21T10:53:35;6.90;;;5.70;;
36191;SDS011;22233;42.708;23.360;2022-08-21T10:56:23;8.15;;;5.32;;
36191;SDS011;22233;42.708;23.360;2022-08-21T11:02:05;7.05;;;5.30;;
36191;SDS011;22233;42.708;23.360;2022-08-21T11:07:34;8.05;;;5.53;;
36191;SDS011;22233;42.708;23.360;2022-08-21T11:10:12;9.55;;;5.80;;
36191;SDS011;22233;42.708;23.360;2022-08-21T11:12:44;10.93;;;5.65;;
36191;SDS011;22233;42.708;23.360;2022-08-21T11:15:27;7.22;;;4.50;;
36191;SDS011;22233;42.708;23.360;2022-08-21T11:18:15;8.67;;;4.97;;
36191;SDS011;22233;42.708;23.360;2022-08-21T11:21:01;7.95;;;5.85;;
36191;SDS011;22233;42.708;23.360;2022-08-21T11:23:54;9.40;;;5.65;;
36191;SDS011;22233;42.708;23.360;2022-08-21T11:29:04;7.78;;;4.97;;
36191;SDS011;22233;42.708;23.360;2022-08-21T11:34:27;7.50;;;4.50;;
36191;SDS011;22233;42.708;23.360;2022-08-21T11:37:21;9.13;;;4.75;;
36191;SDS011;22233;42.708;23.360;2022-08-21T11:42:42;7.88;;;4.35;;
36191;SDS011;22233;42.708;23.360;2022-08-21T11:48:56;6.70;;;4.80;;
36191;SDS011;22233;42.708;23.360;2022-08-21T11:51:12;6.78;;;4.70;;
36191;SDS011;22233;42.708;23.360;2022-08-21T11:53:47;7.57;;;4.68;;
36191;SDS011;22233;42.708;23.360;2022-08-21T11:56:24;8.07;;;4.80;;
36191;SDS011;22233;42.708;23.360;2022-08-21T11:59:02;6.97;;;5.65;;
36191;SDS011;22233;42.708;23.360;2022-08-21T12:01:35;7.22;;;6.00;;
36191;SDS011;22233;42.708;23.360;2022-08-21T12:04:15;6.28;;;5.32;;
36191;SDS011;22233;42.708;23.360;2022-08-21T12:06:45;10.43;;;6.18;;
36191;SDS011;22233;42.708;23.360;2022-08-21T12:09:29;8.68;;;6.22;;
36191;SDS011;22233;42.708;23.360;2022-08-21T12:14:34;8.48;;;6.18;;
36191;SDS011;22233;42.708;23.360;2022-08-21T12:17:05;11.10;;;7.22;;
36191;SDS011;22233;42.708;23.360;2022-08-21T12:19:32;8.93;;;6.10;;
36191;SDS011;22233;42.708;23.360;2022-08-21T12:26:57;12.02;;;6.93;;
36191;SDS011;22233;42.708;23.360;2022-08-21T12:29:45;10.75;;;5.55;;
36191;SDS011;22233;42.708;23.360;2022-08-21T12:34:39;6.70;;;5.55;;
36191;SDS011;22233;42.708;23.360;2022-08-21T12:39:51;6.00;;;5.30;;
36191;SDS011;22233;42.708;23.360;2022-08-21T12:42:23;6.72;;;5.45;;
36191;SDS011;22233;42.708;23.360;2022-08-21T12:45:04;6.43;;;5.40;;
36191;SDS011;22233;42.708;23.360;2022-08-21T12:48:01;6.53;;;5.32;;
36191;SDS011;22233;42.708;23.360;2022-08-21T12:50:37;6.72;;;5.82;;
36191;SDS011;22233;42.708;23.360;2022-08-21T12:53:11;11.82;;;5.93;;
36191;SDS011;22233;42.708;23.360;2022-08-21T12:56:01;7.05;;;5.50;;
36191;SDS011;22233;42.708;23.360;2022-08-21T12:58:28;8.82;;;7.32;;
36191;SDS011;22233;42.708;23.360;2022-08-21T13:01:17;9.48;;;5.78;;
36191;SDS011;22233;42.708;23.360;2022-08-21T13:03:45;7.05;;;5.97;;
36191;SDS011;22233;42.708;23.360;2022-08-21T13:06:13;9.33;;;5.57;;
36191;SDS011;22233;42.708;23.360;2022-08-21T13:08:41;10.30;;;5.38;;
36191;SDS011;22233;42.708;23.360;2022-08-21T13:11:09;7.28;;;5.47;;
36191;SDS011;22233;42.708;23.360;2022-08-21T13:13:36;9.18;;;5.18;;
36191;SDS011;22233;42.708;23.360;2022-08-21T13:16:04;12.05;;;6.30;;
36191;SDS011;22233;42.708;23.360;2022-08-21T13:18:33;7.68;;;4.82;;
36191;SDS011;22233;42.708;23.360;2022-08-21T13:23:37;11.95;;;6.90;;
36191;SDS011;22233;42.708;23.360;2022-08-21T13:26:13;8.73;;;5.05;;
36191;SDS011;22233;42.708;23.360;2022-08-21T13:28:44;12.35;;;5.40;;
36191;SDS011;22233;42.708;23.360;2022-08-21T13:31:12;9.50;;;5.35;;
36191;SDS011;22233;42.708;23.360;2022-08-21T13:33:45;9.65;;;5.15;;
36191;SDS011;22233;42.708;23.360;2022-08-21T13:38:50;7.75;;;4.80;;
36191;SDS011;22233;42.708;23.360;2022-08-21T13:41:28;9.77;;;6.72;;
36191;SDS011;22233;42.708;23.360;2022-08-21T13:43:58;8.15;;;5.28;;
36191;SDS011;22233;42.708;23.360;2022-08-21T13:46:30;7.00;;;5.55;;
36191;SDS011;22233;42.708;23.360;2022-08-21T13:48:59;9.43;;;4.68;;
36191;SDS011;22233;42.708;23.360;2022-08-21T13:51:26;6.20;;;5.22;;
36191;SDS011;22233;42.708;23.360;2022-08-21T13:53:52;10.23;;;5.07;;
36191;SDS011;22233;42.708;23.360;2022-08-21T13:58:51;6.43;;;5.03;;
36191;SDS011;22233;42.708;23.360;2022-08-21T14:01:39;10.50;;;5.30;;
36191;SDS011;22233;42.708;23.360;2022-08-21T14:07:01;5.35;;;4.55;;
36191;SDS011;22233;42.708;23.360;2022-08-21T14:09:29;9.65;;;5.22;;
36191;SDS011;22233;42.708;23.360;2022-08-21T14:11:58;8.32;;;5.28;;
36191;SDS011;22233;42.708;23.360;2022-08-21T14:14:28;8.27;;;5.30;;
36191;SDS011;22233;42.708;23.360;2022-08-21T14:17:00;9.05;;;5.85;;
36191;SDS011;22233;42.708;23.360;2022-08-21T14:19:45;6.10;;;5.22;;
36191;SDS011;22233;42.708;23.360;2022-08-21T14:28:23;9.70;;;6.07;;
36191;SDS011;22233;42.708;23.360;2022-08-21T14:30:40;10.57;;;5.78;;
36191;SDS011;22233;42.708;23.360;2022-08-21T14:33:10;7.53;;;6.05;;
36191;SDS011;22233;42.708;23.360;2022-08-21T14:35:39;10.43;;;5.97;;
36191;SDS011;22233;42.708;23.360;2022-08-21T14:38:11;8.55;;;6.13;;
36191;SDS011;22233;42.708;23.360;2022-08-21T14:40:39;7.65;;;5.45;;
36191;SDS011;22233;42.708;23.360;2022-08-21T14:43:05;10.95;;;5.85;;
36191;SDS011;22233;42.708;23.360;2022-08-21T14:45:31;9.98;;;6.15;;
36191;SDS011;22233;42.708;23.360;2022-08-21T14:47:57;7.90;;;5.65;;
36191;SDS011;22233;42.708;23.360;2022-08-21T14:50:23;8.15;;;5.07;;
36191;SDS011;22233;42.708;23.360;2022-08-21T14:52:49;6.88;;;5.55;;
36191;SDS011;22233;42.708;23.360;2022-08-21T14:55:16;8.98;;;6.68;;
36191;SDS011;22233;42.708;23.360;2022-08-21T14:57:44;11.55;;;6.65;;
36191;SDS011;22233;42.708;23.360;2022-08-21T15:00:12;9.23;;;6.13;;
36191;SDS011;22233;42.708;23.360;2022-08-21T15:02:39;8.95;;;5.85;;
36191;SDS011;22233;42.708;23.360;2022-08-21T15:05:05;6.60;;;5.80;;
36191;SDS011;22233;42.708;23.360;2022-08-21T15:07:31;8.83;;;6.50;;
36191;SDS011;22233;42.708;23.360;2022-08-21T15:09:56;9.27;;;5.97;;
36191;SDS011;22233;42.708;23.360;2022-08-21T15:12:22;11.32;;;6.43;;
36191;SDS011;22233;42.708;23.360;2022-08-21T15:14:49;7.95;;;6.18;;
36191;SDS011;22233;42.708;23.360;2022-08-21T15:17:15;9.80;;;6.82;;
36191;SDS011;22233;42.708;23.360;2022-08-21T15:19:41;9.65;;;6.45;;
36191;SDS011;22233;42.708;23.360;2022-08-21T15:22:06;7.50;;;5.30;;
36191;SDS011;22233;42.708;23.360;2022-08-21T15:24:32;10.55;;;6.03;;
36191;SDS011;22233;42.708;23.360;2022-08-21T15:26:58;7.43;;;6.55;;
36191;SDS011;22233;42.708;23.360;2022-08-21T15:29:25;7.13;;;6.13;;
36191;SDS011;22233;42.708;23.360;2022-08-21T15:34:18;10.30;;;6.70;;
36191;SDS011;22233;42.708;23.360;2022-08-21T15:36:45;9.70;;;6.75;;
36191;SDS011;22233;42.708;23.360;2022-08-21T15:39:10;7.50;;;6.70;;
36191;SDS011;22233;42.708;23.360;2022-08-21T15:41:36;9.15;;;6.65;;
36191;SDS011;22233;42.708;23.360;2022-08-21T15:44:01;7.53;;;6.25;;
36191;SDS011;22233;42.708;23.360;2022-08-21T15:46:27;8.18;;;6.22;;
36191;SDS011;22233;42.708;23.360;2022-08-21T15:48:52;7.43;;;5.90;;
36191;SDS011;22233;42.708;23.360;2022-08-21T15:51:18;7.80;;;5.65;;
36191;SDS011;22233;42.708;23.360;2022-08-21T15:53:44;12.68;;;6.35;;
36191;SDS011;22233;42.708;23.360;2022-08-21T15:56:17;7.55;;;5.72;;
36191;SDS011;22233;42.708;23.360;2022-08-21T15:58:48;8.40;;;5.68;;
36191;SDS011;22233;42.708;23.360;2022-08-21T16:01:14;8.43;;;5.45;;
36191;SDS011;22233;42.708;23.360;2022-08-21T16:03:40;10.52;;;6.45;;
36191;SDS011;22233;42.708;23.360;2022-08-21T16:08:32;9.07;;;5.70;;
36191;SDS011;22233;42.708;23.360;2022-08-21T16:10:58;9.32;;;5.65;;
36191;SDS011;22233;42.708;23.360;2022-08-21T16:13:25;7.88;;;5.88;;
36191;SDS011;22233;42.708;23.360;2022-08-21T16:15:57;8.27;;;5.38;;
36191;SDS011;22233;42.708;23.360;2022-08-21T16:18:22;10.10;;;6.55;;